Time;durP1;ratioP1;P1;durP2;ratioP2;P2;SDS_P1;SDS_P2;PMS_P1;PMS_P2;Temp;Humidity;BMP_temperature;BMP_pressure;BME280_temperature;BME280_humidity;BME280_pressure;Samples;Min_cycle;Max_cycle;Signal;HPM_P1;HPM_P2
2023/10/12 00:02:21;;;;;;;9.73;3.33;;;15.00;99.90;;;;;;5033054;28;20205;-58
2023/10/12 00:04:53;;;;;;;8.07;3.00;;;15.10;99.90;;;;;;5038388;28;20286;-58
2023/10/12 00:07:33;;;;;;;9.17;2.77;;;15.20;99.90;;;;;;5044989;28;20194;-58
2023/10/12 00:10:12;;;;;;;3.37;2.80;;;15.30;99.90;;;;;;5042015;28;20260;-58
2023/10/12 00:12:46;;;;;;;8.80;3.67;;;15.40;99.90;;;;;;5043440;28;20213;-58
2023/10/12 00:15:23;;;;;;;6.63;4.40;;;15.30;99.90;;;;;;5013653;28;20281;-58
2023/10/12 00:17:51;;;;;;;8.57;4.30;;;15.20;99.90;;;;;;5025740;28;20336;-58
2023/10/12 00:20:22;;;;;;;3.30;2.87;;;14.80;99.90;;;;;;5039687;28;20301;-58
2023/10/12 00:22:49;;;;;;;5.10;3.00;;;14.70;99.90;;;;;;5041218;28;20194;-58
2023/10/12 00:25:16;;;;;;;5.07;3.60;;;14.50;99.90;;;;;;5053049;28;20198;-58
2023/10/12 00:27:43;;;;;;;3.70;3.40;;;14.40;99.90;;;;;;5049987;28;20226;-58
2023/10/12 00:30:12;;;;;;;4.57;3.23;;;14.30;99.90;;;;;;5028555;28;20225;-58
2023/10/12 00:32:40;;;;;;;2.67;2.43;;;14.30;99.90;;;;;;5027221;28;20341;-58
2023/10/12 00:35:11;;;;;;;7.80;3.97;;;14.20;99.90;;;;;;5052061;28;20615;-58
2023/10/12 00:37:41;;;;;;;6.90;3.23;;;14.10;99.90;;;;;;5052969;28;20233;-58
2023/10/12 00:40:25;;;;;;;6.07;2.87;;;14.10;99.90;;;;;;5048720;28;20224;-58
2023/10/12 00:42:53;;;;;;;8.00;3.20;;;14.10;99.90;;;;;;5033148;28;20240;-58
2023/10/12 00:45:29;;;;;;;4.40;3.77;;;14.10;99.90;;;;;;5045168;28;20739;-58
2023/10/12 00:48:06;;;;;;;10.80;3.77;;;14.00;99.90;;;;;;5036355;28;20195;-58
2023/10/12 00:50:36;;;;;;;4.90;3.67;;;13.90;99.90;;;;;;5026243;28;20552;-58
2023/10/12 00:53:14;;;;;;;8.10;3.17;;;13.80;99.90;;;;;;5029229;28;20234;-58
2023/10/12 00:55:45;;;;;;;4.07;2.90;;;13.80;99.90;;;;;;5040494;28;20202;-58
2023/10/12 00:58:14;;;;;;;5.70;4.30;;;13.70;99.90;;;;;;5030534;28;20209;-58
2023/10/12 01:00:45;;;;;;;5.07;2.50;;;13.80;99.90;;;;;;5030988;28;20232;-58
2023/10/12 01:03:31;;;;;;;8.77;2.90;;;13.90;99.90;;;;;;5043325;28;20289;-58
2023/10/12 01:06:28;;;;;;;7.70;2.70;;;14.10;99.90;;;;;;5031657;28;20726;-58
2023/10/12 01:08:57;;;;;;;5.53;2.53;;;14.30;99.90;;;;;;5040137;28;20249;-58
2023/10/12 01:11:26;;;;;;;6.93;2.00;;;14.50;99.90;;;;;;5037189;28;20778;-58
2023/10/12 01:14:05;;;;;;;11.87;2.60;;;14.70;99.90;;;;;;5051630;28;20218;-58
2023/10/12 01:16:45;;;;;;;5.20;2.70;;;14.80;99.90;;;;;;5048703;28;20313;-58
2023/10/12 01:19:20;;;;;;;2.67;2.33;;;14.90;99.90;;;;;;5025268;28;20269;-58
2023/10/12 01:21:48;;;;;;;4.97;2.30;;;15.00;99.90;;;;;;5031843;28;20368;-58
2023/10/12 01:24:16;;;;;;;4.53;2.47;;;15.00;99.90;;;;;;5018480;28;20278;-58
2023/10/12 01:26:45;;;;;;;3.23;2.60;;;14.90;99.90;;;;;;5012450;28;20203;-58
2023/10/12 01:29:19;;;;;;;5.77;2.40;;;14.80;99.90;;;;;;5029146;28;20233;-57
2023/10/12 01:31:52;;;;;;;4.23;2.20;;;14.80;99.90;;;;;;5027523;28;20229;-58
2023/10/12 01:34:24;;;;;;;6.83;3.07;;;14.80;99.90;;;;;;5031540;28;20321;-58
2023/10/12 01:36:55;;;;;;;6.60;2.20;;;14.90;99.90;;;;;;5031751;28;20679;-58
2023/10/12 01:39:26;;;;;;;2.80;2.30;;;15.00;99.90;;;;;;5030304;28;20218;-58
2023/10/12 01:41:55;;;;;;;4.70;2.40;;;15.00;99.90;;;;;;5030366;28;20732;-58
2023/10/12 01:44:23;;;;;;;5.77;2.03;;;15.00;99.90;;;;;;5043142;28;20194;-58
2023/10/12 01:46:50;;;;;;;4.37;2.67;;;15.00;99.90;;;;;;5051450;28;20360;-58
2023/10/12 01:49:18;;;;;;;6.07;3.10;;;15.00;99.90;;;;;;5038823;28;20856;-58
2023/10/12 01:51:46;;;;;;;7.47;2.50;;;15.10;99.90;;;;;;5035399;28;20787;-58
2023/10/12 01:54:22;;;;;;;4.57;2.50;;;15.10;99.90;;;;;;5042269;28;20249;-58
2023/10/12 01:56:51;;;;;;;5.10;3.00;;;15.10;99.90;;;;;;5036602;28;20255;-58
2023/10/12 01:59:19;;;;;;;7.40;3.20;;;15.00;99.90;;;;;;5043314;28;20233;-58
2023/10/12 02:01:47;;;;;;;5.37;2.87;;;15.00;99.90;;;;;;5051010;28;20202;-58
2023/10/12 02:04:14;;;;;;;3.30;2.37;;;15.00;99.90;;;;;;5041303;28;20221;-58
2023/10/12 02:06:43;;;;;;;5.90;2.83;;;15.10;99.90;;;;;;5034280;28;20210;-58
2023/10/12 02:09:10;;;;;;;5.43;2.90;;;15.10;99.90;;;;;;5033125;28;20258;-58
2023/10/12 02:11:45;;;;;;;4.03;2.80;;;15.10;99.90;;;;;;5011677;28;20211;-58
2023/10/12 02:14:15;;;;;;;8.70;2.57;;;15.00;99.90;;;;;;5011350;28;20698;-58
2023/10/12 02:16:53;;;;;;;6.13;2.60;;;14.90;99.90;;;;;;5016319;28;20768;-58
2023/10/12 02:19:31;;;;;;;7.17;2.30;;;14.90;99.90;;;;;;5034568;28;20217;-58
2023/10/12 02:22:01;;;;;;;7.17;2.63;;;14.70;99.90;;;;;;5045374;28;20214;-59
2023/10/12 02:24:28;;;;;;;5.70;2.90;;;14.60;99.90;;;;;;5019964;28;20268;-58
2023/10/12 02:27:00;;;;;;;5.00;2.77;;;14.50;99.90;;;;;;5038247;28;20197;-58
2023/10/12 02:29:35;;;;;;;3.33;2.17;;;14.40;99.90;;;;;;5029367;28;20230;-58
2023/10/12 02:32:16;;;;;;;6.30;2.57;;;14.30;99.90;;;;;;5042415;28;20198;-58
2023/10/12 02:34:43;;;;;;;3.90;2.80;;;14.20;99.90;;;;;;5051023;28;20704;-58
2023/10/12 02:37:19;;;;;;;4.83;2.93;;;14.10;99.90;;;;;;5030991;28;20238;-58
2023/10/12 02:39:48;;;;;;;5.40;2.13;;;14.10;99.90;;;;;;5030700;28;20222;-58
2023/10/12 02:42:22;;;;;;;3.00;2.70;;;14.00;99.90;;;;;;5034719;28;20572;-58
2023/10/12 02:45:15;;;;;;;3.37;2.47;;;13.90;99.90;;;;;;5047280;28;20198;-58
2023/10/12 02:47:45;;;;;;;3.67;2.70;;;13.80;99.90;;;;;;5040849;28;20199;-58
2023/10/12 02:53:08;;;;;;;6.30;3.03;;;13.50;99.90;;;;;;5010494;28;20213;-57
2023/10/12 02:55:40;;;;;;;8.30;2.30;;;13.50;99.90;;;;;;5027332;28;20202;-58
2023/10/12 02:58:18;;;;;;;7.33;3.30;;;13.40;99.90;;;;;;5049584;28;20202;-58
2023/10/12 03:00:47;;;;;;;4.63;2.20;;;13.40;99.90;;;;;;5050654;28;20206;-58
2023/10/12 03:03:23;;;;;;;2.83;2.40;;;13.30;99.90;;;;;;5044813;28;20867;-58
2023/10/12 03:05:52;;;;;;;5.97;2.50;;;13.20;99.90;;;;;;5034060;28;20584;-58
2023/10/12 03:08:20;;;;;;;5.57;2.77;;;13.30;99.90;;;;;;5024880;28;20230;-58
2023/10/12 03:13:37;;;;;;;9.60;3.00;;;13.50;99.90;;;;;;5027130;28;20214;-58
2023/10/12 03:16:13;;;;;;;6.57;2.67;;;13.70;99.90;;;;;;5042159;28;20201;-58
2023/10/12 03:18:40;;;;;;;5.37;1.87;;;13.80;99.90;;;;;;5034181;28;20219;-58
2023/10/12 03:21:12;;;;;;;4.50;2.27;;;14.00;99.90;;;;;;5037705;28;20631;-58
2023/10/12 03:23:40;;;;;;;4.43;2.23;;;14.10;99.90;;;;;;5040045;28;20646;-58
2023/10/12 03:26:17;;;;;;;3.03;2.10;;;14.20;99.90;;;;;;5049323;28;20232;-58
2023/10/12 03:28:46;;;;;;;6.17;2.87;;;14.20;99.90;;;;;;5053953;28;20232;-57
2023/10/12 03:31:22;;;;;;;6.00;2.87;;;14.30;99.90;;;;;;5044189;28;20255;-57
2023/10/12 03:33:54;;;;;;;7.50;2.47;;;14.30;99.90;;;;;;5036154;28;20229;-58
2023/10/12 03:36:26;;;;;;;4.97;2.47;;;14.30;99.90;;;;;;5034618;28;20213;-57
2023/10/12 03:39:13;;;;;;;6.30;2.37;;;14.30;99.90;;;;;;5033765;28;20702;-58
2023/10/12 03:41:55;;;;;;;5.30;2.03;;;14.40;99.90;;;;;;5030304;28;20242;-57
2023/10/12 03:44:36;;;;;;;2.63;1.83;;;14.40;99.90;;;;;;5021476;28;20777;-57
2023/10/12 03:47:14;;;;;;;2.63;1.67;;;14.40;99.90;;;;;;5033439;28;20204;-58
2023/10/12 03:49:57;;;;;;;4.70;2.47;;;14.40;99.90;;;;;;5033706;28;20218;-59
2023/10/12 03:52:28;;;;;;;8.33;2.57;;;14.40;99.90;;;;;;5019099;28;20278;-58
2023/10/12 03:55:09;;;;;;;6.53;2.30;;;14.40;99.90;;;;;;5022491;28;20898;-56
2023/10/12 03:57:41;;;;;;;4.83;2.40;;;14.30;99.90;;;;;;5033459;28;20216;-59
2023/10/12 04:02:58;;;;;;;5.13;2.20;;;14.20;99.90;;;;;;5025185;28;20210;-59
2023/10/12 04:05:55;;;;;;;4.40;2.00;;;14.10;99.90;;;;;;5019568;28;20245;-59
2023/10/12 04:08:45;;;;;;;6.30;2.00;;;14.10;99.90;;;;;;5025744;28;20226;-56
2023/10/12 04:11:47;;;;;;;4.40;2.00;;;14.00;99.90;;;;;;5033047;28;20206;-56
2023/10/12 04:17:09;;;;;;;2.93;1.97;;;13.90;99.90;;;;;;5011527;28;20263;-58
2023/10/12 04:19:42;;;;;;;3.70;2.00;;;13.80;99.90;;;;;;5023180;28;20269;-56
2023/10/12 04:22:25;;;;;;;6.80;2.40;;;13.70;99.90;;;;;;5018290;28;20277;-58
2023/10/12 04:24:54;;;;;;;2.20;2.00;;;13.60;99.90;;;;;;5028815;28;20198;-58
2023/10/12 04:27:44;;;;;;;2.20;1.90;;;13.50;99.90;;;;;;5015172;28;20291;-58
2023/10/12 04:30:23;;;;;;;4.80;2.70;;;13.40;99.90;;;;;;5013378;28;20231;-56
2023/10/12 04:33:11;;;;;;;4.77;2.17;;;13.40;99.90;;;;;;5013421;28;20194;-58
2023/10/12 04:36:10;;;;;;;5.93;2.20;;;13.30;99.90;;;;;;5012729;28;20250;-58
2023/10/12 04:38:46;;;;;;;9.40;2.73;;;13.20;99.90;;;;;;5017533;28;20606;-58
2023/10/12 04:44:06;;;;;;;3.70;2.07;;;13.10;99.90;;;;;;5006006;28;20191;-58
2023/10/12 04:46:47;;;;;;;8.20;2.93;;;13.30;99.90;;;;;;5012653;28;20221;-58
2023/10/12 04:49:53;;;;;;;6.00;2.10;;;13.40;99.90;;;;;;5011899;28;20269;-58
2023/10/12 04:52:32;;;;;;;8.23;2.43;;;13.70;99.90;;;;;;5017398;28;20195;-59
2023/10/12 04:55:06;;;;;;;8.03;2.57;;;13.90;99.90;;;;;;5026285;28;20711;-58
2023/10/12 04:57:34;;;;;;;6.70;1.60;;;14.00;99.90;;;;;;5026179;28;20203;-58
2023/10/12 05:00:10;;;;;;;8.30;2.90;;;14.10;99.90;;;;;;5032143;28;20218;-58
2023/10/12 05:02:54;;;;;;;5.93;2.07;;;14.20;99.90;;;;;;5026426;28;20644;-59
2023/10/12 05:05:54;;;;;;;8.77;2.60;;;14.30;99.90;;;;;;5022906;28;20198;-58
2023/10/12 05:08:21;;;;;;;4.03;1.93;;;14.40;99.90;;;;;;5020804;28;20194;-57
2023/10/12 05:10:49;;;;;;;5.27;2.50;;;14.40;99.90;;;;;;5027762;28;20296;-57
2023/10/12 05:13:22;;;;;;;5.23;2.20;;;14.40;99.90;;;;;;5031093;28;20697;-57
2023/10/12 05:15:56;;;;;;;4.60;2.63;;;14.40;99.90;;;;;;5031423;28;20741;-57
2023/10/12 05:18:24;;;;;;;5.70;1.87;;;14.40;99.90;;;;;;5030962;28;20199;-57
2023/10/12 05:20:53;;;;;;;6.37;3.60;;;14.50;99.90;;;;;;5027691;28;20201;-57
2023/10/12 05:23:21;;;;;;;6.63;1.77;;;14.50;99.90;;;;;;5020818;28;20252;-57
2023/10/12 05:25:53;;;;;;;7.37;2.60;;;14.60;99.90;;;;;;5026612;28;20191;-57
2023/10/12 05:28:26;;;;;;;9.07;2.13;;;14.70;99.90;;;;;;5031529;28;20225;-58
2023/10/12 05:30:59;;;;;;;7.20;2.10;;;14.80;99.90;;;;;;5025704;28;20207;-58
2023/10/12 05:33:38;;;;;;;3.97;2.23;;;14.80;99.90;;;;;;5024060;28;20222;-58
2023/10/12 05:36:09;;;;;;;8.70;2.30;;;14.80;99.90;;;;;;5031413;28;20261;-57
2023/10/12 05:38:38;;;;;;;3.30;2.03;;;14.80;99.90;;;;;;5031441;28;20301;-58
2023/10/12 05:41:08;;;;;;;6.17;2.17;;;14.70;99.90;;;;;;5025345;28;20825;-58
2023/10/12 05:43:36;;;;;;;2.77;1.97;;;14.60;99.90;;;;;;5028816;28;20332;-58
2023/10/12 05:46:09;;;;;;;5.77;2.57;;;14.50;99.90;;;;;;5031569;28;20213;-58
2023/10/12 05:48:41;;;;;;;5.33;2.30;;;14.40;99.90;;;;;;5031313;28;20301;-57
2023/10/12 05:51:11;;;;;;;4.43;1.90;;;14.30;99.90;;;;;;5026723;28;20211;-58
2023/10/12 05:53:39;;;;;;;6.27;1.80;;;14.30;99.90;;;;;;5025229;28;20198;-58
2023/10/12 05:56:06;;;;;;;1.70;1.60;;;14.20;99.90;;;;;;5027044;28;20309;-58
2023/10/12 05:58:38;;;;;;;4.97;2.07;;;14.20;99.90;;;;;;5019733;28;20257;-58
2023/10/12 06:01:18;;;;;;;9.43;3.03;;;14.30;99.90;;;;;;5026503;28;20209;-58
2023/10/12 06:03:56;;;;;;;5.30;1.90;;;14.40;99.90;;;;;;5026282;28;20202;-57
2023/10/12 06:06:24;;;;;;;6.33;2.37;;;14.40;99.90;;;;;;5031445;28;20588;-57
2023/10/12 06:08:52;;;;;;;2.80;2.37;;;14.40;99.90;;;;;;5023891;28;20215;-58
2023/10/12 06:11:21;;;;;;;6.80;3.43;;;14.40;99.90;;;;;;5016065;28;20210;-58
2023/10/12 06:13:53;;;;;;;4.60;2.13;;;14.50;99.90;;;;;;5030688;28;20241;-59
2023/10/12 06:16:21;;;;;;;7.43;2.60;;;14.50;99.90;;;;;;5021109;28;20234;-58
2023/10/12 06:18:49;;;;;;;6.57;2.27;;;14.50;99.90;;;;;;5033173;28;20267;-57
2023/10/12 06:21:18;;;;;;;6.93;2.23;;;14.70;99.90;;;;;;5021096;28;20285;-58
2023/10/12 06:23:50;;;;;;;3.90;2.27;;;14.70;99.90;;;;;;5021331;28;20225;-58
2023/10/12 06:26:28;;;;;;;3.67;2.50;;;14.90;99.90;;;;;;5020598;28;20296;-58
2023/10/12 06:28:56;;;;;;;10.80;2.80;;;14.90;99.90;;;;;;5019850;28;20253;-58
2023/10/12 06:31:25;;;;;;;7.70;2.20;;;14.90;99.90;;;;;;5024940;28;20623;-58
2023/10/12 06:33:55;;;;;;;5.33;2.53;;;14.90;99.90;;;;;;5029141;28;20199;-58
2023/10/12 06:36:36;;;;;;;6.47;2.53;;;15.00;99.90;;;;;;5030911;28;20339;-57
2023/10/12 06:42:07;;;;;;;7.73;2.00;;;15.00;99.90;;;;;;5026265;28;20574;-58
2023/10/12 06:44:33;;;;;;;6.03;2.53;;;15.00;99.90;;;;;;5020153;28;20277;-58
2023/10/12 06:47:23;;;;;;;6.50;2.67;;;15.00;99.90;;;;;;5030540;28;20282;-58
2023/10/12 06:49:47;;;;;;;4.10;1.57;;;15.00;99.90;;;;;;5029050;28;20300;-58
2023/10/12 06:52:19;;;;;;;7.80;2.53;;;15.10;99.90;;;;;;5029293;28;20303;-57
2023/10/12 06:54:59;;;;;;;10.63;2.50;;;15.30;99.90;;;;;;5030770;28;20740;-58
2023/10/12 06:57:36;;;;;;;6.40;2.37;;;15.40;99.90;;;;;;5033705;28;20280;-58
2023/10/12 07:02:46;;;;;;;8.60;3.33;;;15.50;99.90;;;;;;5027698;28;20879;-57
2023/10/12 07:05:19;;;;;;;9.70;2.23;;;15.50;99.90;;;;;;5033020;28;20578;-58
2023/10/12 07:07:51;;;;;;;6.00;2.97;;;15.60;99.90;;;;;;5031288;28;20289;-58
2023/10/12 07:10:28;;;;;;;5.73;2.60;;;15.60;99.90;;;;;;5033038;28;20305;-58
2023/10/12 07:12:59;;;;;;;3.07;2.20;;;15.80;99.90;;;;;;5030415;28;20289;-58
2023/10/12 07:15:32;;;;;;;8.90;2.90;;;15.90;99.90;;;;;;5026444;28;20218;-57
2023/10/12 07:18:07;;;;;;;8.50;3.53;;;16.00;99.90;;;;;;5033012;28;20228;-57
2023/10/12 07:20:46;;;;;;;4.80;3.00;;;16.00;99.90;;;;;;5034101;28;20669;-57
2023/10/12 07:23:18;;;;;;;4.67;2.57;;;16.00;99.90;;;;;;5036144;28;20293;-57
2023/10/12 07:25:59;;;;;;;7.03;2.90;;;16.00;99.90;;;;;;5029377;28;20206;-58
2023/10/12 07:28:32;;;;;;;11.90;3.20;;;16.00;99.90;;;;;;5030996;28;20210;-58
2023/10/12 07:34:01;;;;;;;6.10;2.20;;;16.20;99.90;;;;;;4997363;28;20555;-58
2023/10/12 07:39:19;;;;;;;8.90;1.90;;;16.40;99.90;;;;;;5023170;28;20298;-57
2023/10/12 07:41:59;;;;;;;10.27;2.40;;;16.60;99.90;;;;;;5031396;28;20203;-58
2023/10/12 07:44:28;;;;;;;4.03;2.47;;;16.90;99.90;;;;;;5026564;28;20210;-57
2023/10/12 07:46:57;;;;;;;5.93;2.73;;;17.20;99.90;;;;;;5033588;28;20265;-57
2023/10/12 07:49:37;;;;;;;10.33;3.73;;;17.50;99.90;;;;;;5025015;28;20215;-58
2023/10/12 07:52:22;;;;;;;5.23;2.97;;;17.80;99.90;;;;;;5023171;28;20202;-58
2023/10/12 07:54:59;;;;;;;6.77;2.83;;;18.00;99.90;;;;;;5032838;28;20234;-56
2023/10/12 07:57:36;;;;;;;6.73;2.60;;;18.00;99.90;;;;;;5032448;28;20600;-56
2023/10/12 08:05:43;;;;;;;5.27;2.57;;;18.00;99.90;;;;;;5025191;28;20266;-56
2023/10/12 08:08:32;;;;;;;9.17;2.60;;;18.00;99.90;;;;;;5028338;28;20302;-56
2023/10/12 08:11:00;;;;;;;8.67;4.00;;;17.90;99.90;;;;;;5023166;28;20282;-56
2023/10/12 08:13:32;;;;;;;9.60;3.40;;;17.90;99.90;;;;;;5015948;28;20227;-56
2023/10/12 08:16:03;;;;;;;5.00;2.50;;;17.90;99.90;;;;;;5013161;28;20702;-56
2023/10/12 08:21:24;;;;;;;5.93;2.60;;;18.00;99.90;;;;;;5044531;28;20304;-56
2023/10/12 08:23:57;;;;;;;5.83;2.10;;;18.10;99.90;;;;;;5052569;28;20665;-57
2023/10/12 08:26:35;;;;;;;5.20;2.67;;;18.30;99.90;;;;;;5030613;28;20631;-56
2023/10/12 08:29:17;;;;;;;5.27;2.43;;;18.50;99.90;;;;;;5034968;28;20295;-55
2023/10/12 08:31:43;;;;;;;2.87;1.80;;;18.70;99.90;;;;;;5032048;28;20746;-55
2023/10/12 08:37:17;;;;;;;9.70;2.10;;;19.00;99.90;;;;;;5032073;28;20301;-56
2023/10/12 08:39:51;;;;;;;9.13;1.93;;;19.20;99.90;;;;;;5026990;28;20220;-56
2023/10/12 08:42:39;;;;;;;7.60;2.10;;;19.40;99.90;;;;;;5031826;28;20260;-56
2023/10/12 08:45:08;;;;;;;7.30;2.50;;;19.60;99.90;;;;;;5033757;28;20281;-56
2023/10/12 08:47:44;;;;;;;7.70;2.60;;;20.20;99.90;;;;;;5026254;28;20199;-57
2023/10/12 08:52:55;;;;;;;17.77;3.70;;;21.50;99.90;;;;;;5036041;28;20197;-56
2023/10/12 08:55:25;;;;;;;5.23;2.03;;;21.90;99.90;;;;;;5012472;28;20273;-56
2023/10/12 08:58:02;;;;;;;4.90;1.80;;;22.10;99.90;;;;;;5015611;28;20221;-56
2023/10/12 09:00:42;;;;;;;7.30;2.00;;;22.50;99.90;;;;;;5032906;28;20218;-56
2023/10/12 09:05:58;;;;;;;4.50;2.10;;;23.00;99.90;;;;;;5009861;28;20264;-56
2023/10/12 09:08:39;;;;;;;6.90;2.33;;;23.40;99.90;;;;;;5018582;28;20206;-56
2023/10/12 09:11:14;;;;;;;4.87;2.00;;;23.60;99.90;;;;;;5043150;28;20193;-57
2023/10/12 09:13:45;;;;;;;9.47;2.90;;;23.40;99.90;;;;;;5051142;28;20197;-57
2023/10/12 09:16:17;;;;;;;5.63;2.20;;;23.50;99.90;;;;;;5051266;28;20248;-56
2023/10/12 09:18:46;;;;;;;5.03;1.80;;;23.70;99.90;;;;;;5044524;28;20730;-56
2023/10/12 09:21:23;;;;;;;11.00;2.30;;;24.10;99.90;;;;;;5042701;28;20205;-56
2023/10/12 09:23:52;;;;;;;8.60;2.00;;;24.40;99.90;;;;;;5050738;28;20201;-56
2023/10/12 09:26:32;;;;;;;6.93;1.67;;;24.80;99.90;;;;;;5050893;28;20201;-56
2023/10/12 09:29:20;;;;;;;5.47;2.07;;;24.90;99.90;;;;;;5043326;28;20310;-56
2023/10/12 09:34:43;;;;;;;11.53;3.23;;;25.50;99.90;;;;;;5050900;28;20324;-56
2023/10/12 09:37:16;;;;;;;5.87;2.00;;;26.00;99.90;;;;;;5050011;28;20222;-56
2023/10/12 09:39:45;;;;;;;5.20;1.80;;;26.40;99.90;;;;;;5033463;28;20214;-56
2023/10/12 09:42:22;;;;;;;6.63;2.43;;;26.80;99.90;;;;;;5033905;28;20264;-59
2023/10/12 09:44:53;;;;;;;4.57;1.80;;;26.50;99.90;;;;;;5030798;28;20238;-58
2023/10/12 09:47:26;;;;;;;3.33;2.43;;;26.70;99.90;;;;;;5027246;28;20259;-59
2023/10/12 09:49:59;;;;;;;9.43;2.13;;;26.70;99.90;;;;;;5034911;28;20268;-58
2023/10/12 09:52:42;;;;;;;8.90;2.03;;;26.40;99.90;;;;;;5030526;28;20199;-58
2023/10/12 09:55:14;;;;;;;8.10;2.43;;;26.20;99.90;;;;;;5030700;28;20695;-58
2023/10/12 09:57:50;;;;;;;5.60;1.83;;;26.40;99.90;;;;;;5029648;28;20674;-58
2023/10/12 10:00:29;;;;;;;6.90;2.10;;;26.90;99.90;;;;;;5034742;28;20762;-59
2023/10/12 10:03:03;;;;;;;3.30;2.38;;;26.90;99.20;;;;;;5049976;28;20209;-58
2023/10/12 10:05:51;;;;;;;4.87;1.90;;;27.00;98.90;;;;;;5036857;28;20671;-58
2023/10/12 10:08:22;;;;;;;7.45;2.25;;;26.90;99.90;;;;;;5032068;28;20271;-58
2023/10/12 10:10:57;;;;;;;7.03;2.45;;;27.00;99.90;;;;;;5041961;28;20654;-59
2023/10/12 10:13:47;;;;;;;3.75;1.95;;;27.30;99.90;;;;;;5027074;28;20202;-59
2023/10/12 10:16:17;;;;;;;5.07;2.05;;;27.50;98.40;;;;;;5027056;28;20258;-58
2023/10/12 10:18:47;;;;;;;5.60;1.70;;;27.40;98.80;;;;;;5026275;28;20284;-59
2023/10/12 10:21:19;;;;;;;8.73;2.03;;;27.70;99.10;;;;;;5029257;28;20234;-59
2023/10/12 10:23:49;;;;;;;8.00;2.08;;;27.70;98.30;;;;;;5029766;28;20257;-60
2023/10/12 10:26:22;;;;;;;5.30;2.80;;;27.80;97.20;;;;;;5026083;28;20210;-58
2023/10/12 10:28:55;;;;;;;8.57;2.50;;;27.40;96.30;;;;;;5021539;28;20226;-58
2023/10/12 10:31:32;;;;;;;4.18;2.30;;;27.00;98.10;;;;;;5031748;28;20336;-57
2023/10/12 10:34:06;;;;;;;5.38;2.95;;;26.60;97.30;;;;;;5032164;28;20197;-58
2023/10/12 10:36:36;;;;;;;4.85;1.80;;;26.40;97.80;;;;;;5033962;28;20272;-58
2023/10/12 10:39:09;;;;;;;6.60;1.87;;;25.90;97.80;;;;;;5024785;28;20915;-58
2023/10/12 10:41:54;;;;;;;4.60;2.35;;;25.50;99.40;;;;;;5027443;28;20203;-58
2023/10/12 10:44:22;;;;;;;3.70;2.07;;;25.20;99.90;;;;;;5029001;28;20202;-58
2023/10/12 10:46:54;;;;;;;5.07;2.40;;;25.10;99.90;;;;;;5033823;28;20194;-58
2023/10/12 10:49:26;;;;;;;5.80;2.40;;;25.00;99.90;;;;;;5026456;28;20310;-58
2023/10/12 10:52:02;;;;;;;8.57;3.37;;;25.00;99.90;;;;;;5033493;28;20198;-59
2023/10/12 10:54:32;;;;;;;8.00;3.33;;;25.00;99.90;;;;;;5026358;28;20210;-59
2023/10/12 10:57:04;;;;;;;4.37;2.10;;;25.00;99.90;;;;;;5033711;28;20537;-59
2023/10/12 10:59:34;;;;;;;5.03;2.33;;;25.00;99.90;;;;;;5025691;28;20229;-59
2023/10/12 11:02:01;;;;;;;3.37;2.23;;;25.10;99.90;;;;;;5021678;28;20202;-58
2023/10/12 11:07:15;;;;;;;3.87;1.70;;;25.40;99.90;;;;;;5028259;28;20203;-58
2023/10/12 11:10:05;;;;;;;5.73;2.33;;;25.50;99.90;;;;;;5033523;28;20222;-59
2023/10/12 11:12:32;;;;;;;9.60;2.50;;;25.30;99.90;;;;;;5025965;28;20221;-58
2023/10/12 11:15:01;;;;;;;6.13;2.50;;;25.40;99.90;;;;;;5033641;28;20191;-59
2023/10/12 11:17:35;;;;;;;5.00;1.83;;;25.50;99.90;;;;;;5032280;28;20225;-58
2023/10/12 11:20:08;;;;;;;4.43;1.90;;;25.50;99.90;;;;;;5032209;28;20237;-59
2023/10/12 11:22:37;;;;;;;2.37;1.40;;;25.70;99.90;;;;;;5023504;28;20230;-58
2023/10/12 11:25:07;;;;;;;7.07;1.87;;;25.80;99.90;;;;;;5033049;28;20642;-58
2023/10/12 11:27:36;;;;;;;3.45;2.03;;;25.60;99.90;;;;;;5032412;28;20274;-58
2023/10/12 11:30:12;;;;;;;4.30;1.58;;;25.40;99.90;;;;;;5023720;28;20225;-58
2023/10/12 11:32:53;;;;;;;4.43;2.00;;;25.20;99.90;;;;;;5032774;28;20210;-58
2023/10/12 11:35:34;;;;;;;5.07;2.00;;;25.40;99.60;;;;;;5031434;28;20321;-58
2023/10/12 11:38:02;;;;;;;5.00;2.23;;;25.40;99.80;;;;;;5026235;28;20249;-59
2023/10/12 11:40:30;;;;;;;7.30;2.00;;;25.10;99.90;;;;;;5029660;28;20222;-59
2023/10/12 11:42:57;;;;;;;9.97;2.80;;;24.90;99.90;;;;;;5031288;28;20206;-58
2023/10/12 11:45:32;;;;;;;7.20;1.70;;;24.70;99.90;;;;;;5032683;28;20202;-58
2023/10/12 11:48:14;;;;;;;2.90;1.90;;;24.50;99.90;;;;;;5022642;28;20619;-58
2023/10/12 11:50:48;;;;;;;2.40;1.30;;;24.30;99.90;;;;;;5024188;28;20242;-58
2023/10/12 11:53:17;;;;;;;5.30;1.40;;;24.30;99.70;;;;;;5023593;28;20234;-58
2023/10/12 11:55:48;;;;;;;9.33;2.13;;;24.40;99.90;;;;;;5031763;28;20199;-58
2023/10/12 11:58:19;;;;;;;6.97;2.40;;;24.60;99.90;;;;;;5024146;28;21846;-58
2023/10/12 12:00:48;;;;;;;6.57;1.67;;;24.70;99.90;;;;;;5016763;28;20213;-58
2023/10/12 12:03:15;;;;;;;2.43;2.20;;;24.80;99.90;;;;;;5032013;28;20208;-59
2023/10/12 12:05:51;;;;;;;9.43;2.27;;;25.00;99.90;;;;;;5029745;28;20519;-58
2023/10/12 12:08:19;;;;;;;5.00;1.73;;;25.10;99.90;;;;;;5036759;28;20212;-58
2023/10/12 12:10:54;;;;;;;5.10;1.87;;;25.10;99.20;;;;;;5032417;28;20368;-59
2023/10/12 12:13:23;;;;;;;5.03;1.97;;;25.10;98.80;;;;;;5017983;28;20606;-58
2023/10/12 12:15:55;;;;;;;7.63;1.83;;;25.00;97.60;;;;;;5038336;28;20523;-59
2023/10/12 12:18:22;;;;;;;4.27;2.27;;;25.10;99.90;;;;;;5025535;28;20238;-59
2023/10/12 12:20:52;;;;;;;3.47;1.50;;;24.90;99.90;;;;;;5025802;28;20200;-59
2023/10/12 12:23:26;;;;;;;8.33;2.93;;;24.90;99.50;;;;;;5035545;28;20628;-58
2023/10/12 12:25:59;;;;;;;3.83;1.80;;;25.00;99.90;;;;;;5035982;28;20198;-58
2023/10/12 12:28:32;;;;;;;6.67;1.97;;;25.00;99.90;;;;;;5020309;28;20205;-58
2023/10/12 12:31:00;;;;;;;5.53;2.50;;;25.10;99.90;;;;;;5028839;28;20212;-59
2023/10/12 12:33:27;;;;;;;4.83;1.73;;;25.00;99.90;;;;;;5027712;28;20206;-58
2023/10/12 12:36:00;;;;;;;3.55;2.05;;;24.90;99.90;;;;;;5033395;28;20212;-59
2023/10/12 12:38:43;;;;;;;5.03;1.67;;;24.80;99.90;;;;;;5035599;28;20233;-59
2023/10/12 12:41:18;;;;;;;6.00;2.70;;;24.70;99.50;;;;;;5032295;28;20206;-59
2023/10/12 12:43:45;;;;;;;2.83;2.63;;;24.60;99.90;;;;;;5025452;28;20642;-58
2023/10/12 12:46:12;;;;;;;4.67;2.10;;;24.50;98.70;;;;;;5039183;28;20245;-58
2023/10/12 12:48:39;;;;;;;4.63;1.43;;;24.60;99.90;;;;;;5030068;28;20272;-58
2023/10/12 12:51:11;;;;;;;2.65;1.98;;;24.70;99.90;;;;;;5017696;28;20215;-58
2023/10/12 12:53:38;;;;;;;10.40;2.37;;;24.70;99.90;;;;;;5031301;28;20243;-59
2023/10/12 12:56:10;;;;;;;12.00;3.83;;;24.80;99.90;;;;;;5033559;28;20559;-58
2023/10/12 12:58:37;;;;;;;5.70;3.37;;;24.80;99.90;;;;;;5042192;28;20301;-60
2023/10/12 13:01:04;;;;;;;3.58;2.50;;;24.60;99.90;;;;;;5022804;28;20203;-58
2023/10/12 13:03:32;;;;;;;4.27;2.27;;;24.40;99.90;;;;;;5028826;28;20211;-58
2023/10/12 13:05:59;;;;;;;8.83;2.57;;;24.20;99.90;;;;;;5027548;28;20222;-58
2023/10/12 13:08:27;;;;;;;10.83;2.77;;;24.00;99.90;;;;;;5026018;28;20615;-58
2023/10/12 13:10:57;;;;;;;4.97;3.33;;;23.80;99.90;;;;;;5031217;28;20248;-58
2023/10/12 13:13:24;;;;;;;4.43;2.40;;;23.80;99.90;;;;;;5025703;28;20205;-58
2023/10/12 13:15:50;;;;;;;9.00;3.90;;;23.60;99.90;;;;;;5031029;28;20207;-58
2023/10/12 13:18:19;;;;;;;7.43;4.17;;;23.60;99.90;;;;;;5039236;28;20226;-58
2023/10/12 13:20:47;;;;;;;9.83;2.27;;;23.50;99.90;;;;;;5025666;28;20203;-58
2023/10/12 13:23:15;;;;;;;12.67;2.57;;;23.40;99.90;;;;;;5029048;28;20234;-58
2023/10/12 13:25:44;;;;;;;12.23;2.50;;;23.30;99.90;;;;;;5031122;28;20276;-58
2023/10/12 13:28:12;;;;;;;4.97;2.40;;;23.40;99.90;;;;;;5031111;28;20256;-56
2023/10/12 13:30:39;;;;;;;4.43;2.03;;;23.50;99.90;;;;;;5022147;28;20299;-56
2023/10/12 13:33:09;;;;;;;5.60;2.40;;;23.40;99.90;;;;;;5029958;28;20259;-56
2023/10/12 13:35:41;;;;;;;6.60;2.83;;;23.40;99.90;;;;;;5030718;28;20673;-56
2023/10/12 13:38:10;;;;;;;6.87;2.77;;;23.50;99.90;;;;;;5027979;28;20634;-57
2023/10/12 13:40:38;;;;;;;5.47;2.53;;;23.50;99.90;;;;;;5030788;28;20250;-57
2023/10/12 13:43:18;;;;;;;3.77;2.53;;;23.60;99.90;;;;;;5030411;28;20289;-56
2023/10/12 13:45:48;;;;;;;7.70;2.97;;;23.60;99.90;;;;;;5026702;28;20288;-57
2023/10/12 13:48:20;;;;;;;16.30;5.00;;;23.80;99.90;;;;;;5022326;28;20206;-57
2023/10/12 13:50:59;;;;;;;4.47;3.23;;;23.80;99.90;;;;;;5025140;28;20195;-57
2023/10/12 13:53:26;;;;;;;17.37;6.47;;;23.70;99.90;;;;;;5030416;28;20285;-56
2023/10/12 13:55:53;;;;;;;15.10;4.17;;;23.70;99.90;;;;;;5027799;28;20256;-57
2023/10/12 13:58:24;;;;;;;5.67;2.80;;;23.70;99.90;;;;;;5030418;28;20263;-58
2023/10/12 14:00:53;;;;;;;15.53;3.13;;;23.70;99.90;;;;;;5029468;28;20229;-58
2023/10/12 14:03:28;;;;;;;7.00;3.63;;;23.70;99.90;;;;;;5029283;28;20202;-58
2023/10/12 14:05:56;;;;;;;12.40;4.03;;;23.70;99.90;;;;;;5022451;28;20206;-58